Time;durP1;ratioP1;P1;durP2;ratioP2;P2;SDS_P1;SDS_P2;PMS_P1;PMS_P2;Temp;Humidity;BMP_temperature;BMP_pressure;BME280_temperature;BME280_humidity;BME280_pressure;Samples;Min_cycle;Max_cycle;Signal;HPM_P1;HPM_P2
2024/01/03 00:01:59;;;;;;;57.58;6.63;;;;;;;8.52;100.00;98824.25;5036343;28;20021;-76
2024/01/03 00:04:27;;;;;;;44.15;5.65;;;;;;;8.54;100.00;98823.94;5018933;28;20496;-75
2024/01/03 00:06:52;;;;;;;44.90;5.78;;;;;;;8.53;100.00;98820.38;5018893;28;20040;-75
2024/01/03 00:09:17;;;;;;;42.20;5.38;;;;;;;8.56;100.00;98828.03;5025959;28;20029;-75
2024/01/03 00:11:45;;;;;;;45.78;5.18;;;;;;;8.59;100.00;98819.09;5015530;28;20026;-75
2024/01/03 00:14:22;;;;;;;38.85;5.50;;;;;;;8.60;100.00;98812.41;5013477;28;20029;-75
2024/01/03 00:16:47;;;;;;;42.40;5.50;;;;;;;8.62;100.00;98807.38;4998987;28;20022;-75
2024/01/03 00:19:16;;;;;;;41.78;4.60;;;;;;;8.65;100.00;98809.50;5035118;28;20088;-76
2024/01/03 00:21:42;;;;;;;45.33;6.25;;;;;;;8.66;100.00;98804.75;5011199;28;20049;-75
2024/01/03 00:24:08;;;;;;;37.03;4.82;;;;;;;8.67;100.00;98801.69;5034032;28;20041;-75
2024/01/03 00:26:34;;;;;;;42.33;5.15;;;;;;;8.72;100.00;98789.66;5016366;28;20034;-75
2024/01/03 00:29:00;;;;;;;41.35;5.47;;;;;;;8.75;100.00;98768.78;5001696;28;20033;-75
2024/01/03 00:31:41;;;;;;;37.05;5.18;;;;;;;8.78;100.00;98746.84;5018497;28;20080;-75
2024/01/03 00:34:22;;;;;;;40.75;5.13;;;;;;;8.79;100.00;98755.94;5004400;28;20025;-76
2024/01/03 00:36:51;;;;;;;40.22;5.03;;;;;;;8.80;100.00;98744.53;5034739;28;20033;-75
2024/01/03 00:39:25;;;;;;;49.03;5.40;;;;;;;8.85;100.00;98755.44;5015214;28;20038;-76
2024/01/03 00:41:51;;;;;;;45.72;4.95;;;;;;;8.89;100.00;98822.88;5059721;28;20638;-76
2024/01/03 00:44:16;;;;;;;37.40;5.18;;;;;;;8.93;100.00;98837.69;5023486;28;20029;-75
2024/01/03 00:46:42;;;;;;;34.83;4.63;;;;;;;8.95;100.00;98840.97;5031971;28;20382;-75
2024/01/03 00:49:07;;;;;;;46.95;5.53;;;;;;;8.96;100.00;98836.22;5055007;28;20051;-75
2024/01/03 00:51:33;;;;;;;43.63;5.13;;;;;;;8.98;100.00;98833.97;5014953;28;20136;-75
2024/01/03 00:53:58;;;;;;;41.47;5.97;;;;;;;9.00;100.00;98828.09;5034702;28;20040;-75
2024/01/03 00:56:24;;;;;;;42.55;5.82;;;;;;;8.99;100.00;98813.44;5035397;28;20037;-76
2024/01/03 00:58:49;;;;;;;45.75;5.80;;;;;;;9.02;100.00;98806.44;5035256;28;20037;-75
2024/01/03 01:01:16;;;;;;;42.95;6.57;;;;;;;9.02;100.00;98815.53;5018016;28;20022;-75
2024/01/03 01:03:41;;;;;;;45.20;5.82;;;;;;;9.02;100.00;98820.28;5017826;28;20441;-75
2024/01/03 01:06:07;;;;;;;58.17;6.53;;;;;;;8.98;100.00;98817.34;5017167;28;20034;-75
2024/01/03 01:08:33;;;;;;;46.80;5.60;;;;;;;8.99;100.00;98818.97;5029081;28;20087;-75
2024/01/03 01:10:58;;;;;;;41.70;5.50;;;;;;;8.98;100.00;98820.13;5063446;28;20093;-75
2024/01/03 01:13:24;;;;;;;46.13;6.60;;;;;;;8.95;100.00;98804.16;5016268;28;20037;-75
2024/01/03 01:15:49;;;;;;;38.35;5.53;;;;;;;8.95;100.00;98812.47;5017887;28;20029;-75
2024/01/03 01:18:15;;;;;;;41.35;4.95;;;;;;;8.95;100.00;98807.75;5034133;28;20087;-76
2024/01/03 01:20:40;;;;;;;44.03;5.45;;;;;;;8.96;100.00;98805.78;5034052;28;20387;-75
2024/01/03 01:23:06;;;;;;;49.30;5.90;;;;;;;8.94;100.00;98799.75;5034293;28;20052;-75
2024/01/03 01:25:31;;;;;;;41.03;6.22;;;;;;;8.94;100.00;98805.28;5033826;28;20046;-75
2024/01/03 01:27:57;;;;;;;39.10;5.05;;;;;;;8.93;100.00;98793.41;5017655;28;20028;-75
2024/01/03 01:30:22;;;;;;;36.25;6.28;;;;;;;8.92;100.00;98804.81;5033806;28;20056;-75
2024/01/03 01:32:50;;;;;;;47.17;5.78;;;;;;;8.87;100.00;98796.66;5034227;28;20037;-75
2024/01/03 01:35:17;;;;;;;43.67;5.53;;;;;;;8.90;100.00;98794.06;5018649;28;20029;-75
2024/01/03 01:37:43;;;;;;;51.05;6.47;;;;;;;8.88;100.00;98806.59;5032395;28;20044;-75
2024/01/03 01:40:10;;;;;;;35.40;5.03;;;;;;;8.88;100.00;98815.69;5005188;28;20493;-76
2024/01/03 01:42:35;;;;;;;45.40;5.45;;;;;;;8.86;100.00;98822.69;5021651;28;20061;-75
2024/01/03 01:45:01;;;;;;;47.10;5.78;;;;;;;8.81;100.00;98812.63;5037648;28;20037;-75
2024/01/03 01:47:27;;;;;;;37.60;4.70;;;;;;;8.81;100.00;98809.84;5037883;28;20045;-76
2024/01/03 01:49:52;;;;;;;37.70;5.45;;;;;;;8.80;100.00;98810.97;5003467;28;20038;-75
2024/01/03 01:52:18;;;;;;;43.47;6.15;;;;;;;8.79;100.00;98809.34;5038849;28;20036;-75
2024/01/03 01:54:43;;;;;;;40.85;5.82;;;;;;;8.80;100.00;98812.91;5008759;28;20533;-75
2024/01/03 01:57:09;;;;;;;35.97;5.45;;;;;;;8.80;100.00;98819.28;5034880;28;20037;-75
2024/01/03 01:59:34;;;;;;;38.38;4.53;;;;;;;8.80;100.00;98821.22;5017833;28;20029;-75
2024/01/03 02:02:00;;;;;;;41.03;5.50;;;;;;;8.81;100.00;98822.88;5017873;28;20030;-75
2024/01/03 02:04:25;;;;;;;39.35;5.75;;;;;;;8.83;100.00;98837.19;5032455;28;20030;-75
2024/01/03 02:06:51;;;;;;;39.53;4.90;;;;;;;8.85;100.00;98841.25;5038853;28;20025;-75
2024/01/03 02:09:16;;;;;;;45.00;5.32;;;;;;;8.85;100.00;98841.25;5020716;28;20041;-75
2024/01/03 02:11:45;;;;;;;43.10;5.22;;;;;;;8.85;100.00;98841.25;5037254;28;20482;-75
2024/01/03 02:14:11;;;;;;;39.15;4.53;;;;;;;8.87;100.00;98849.25;5035995;28;20112;-75
2024/01/03 02:16:36;;;;;;;34.75;5.05;;;;;;;8.88;100.00;98839.81;5033735;28;20045;-76
2024/01/03 02:19:04;;;;;;;34.08;4.85;;;;;;;8.90;100.00;98841.13;5035203;28;20434;-76
2024/01/03 02:21:30;;;;;;;36.05;5.15;;;;;;;8.91;100.00;98853.84;5035720;28;20029;-75
2024/01/03 02:23:55;;;;;;;40.55;5.68;;;;;;;8.92;100.00;98857.41;5035035;28;20037;-75
2024/01/03 02:26:21;;;;;;;37.25;4.85;;;;;;;8.94;100.00;98849.56;5035515;28;20033;-75
2024/01/03 02:28:46;;;;;;;39.35;5.82;;;;;;;8.93;100.00;98865.38;5018189;28;20022;-75
2024/01/03 02:31:12;;;;;;;30.83;4.78;;;;;;;8.95;100.00;98867.84;5020498;28;20030;-75
2024/01/03 02:33:37;;;;;;;41.40;5.88;;;;;;;8.95;100.00;98874.19;5035474;28;20040;-76
2024/01/03 02:36:03;;;;;;;39.30;4.68;;;;;;;8.96;100.00;98866.69;5023536;28;20064;-75
2024/01/03 02:38:28;;;;;;;35.17;5.25;;;;;;;8.97;100.00;98867.50;5042206;28;20026;-75
2024/01/03 02:40:54;;;;;;;45.55;5.65;;;;;;;8.97;100.00;98859.19;5020727;28;20039;-75
2024/01/03 02:43:20;;;;;;;33.97;4.57;;;;;;;8.97;100.00;98868.34;5036546;28;20037;-75
2024/01/03 02:45:45;;;;;;;41.10;4.78;;;;;;;8.96;100.00;98869.47;5036796;28;20033;-75
2024/01/03 02:48:11;;;;;;;37.53;5.25;;;;;;;8.97;100.00;98865.56;5019873;28;20037;-75
2024/01/03 02:50:36;;;;;;;34.00;4.63;;;;;;;8.99;100.00;98863.28;5037891;28;20043;-75
2024/01/03 02:53:02;;;;;;;32.85;4.95;;;;;;;9.00;100.00;98858.53;5001653;28;20077;-75
2024/01/03 02:55:28;;;;;;;43.22;5.60;;;;;;;9.01;100.00;98857.44;5020297;28;20690;-75
2024/01/03 02:57:53;;;;;;;35.42;4.90;;;;;;;9.01;100.00;98855.47;5037882;28;20030;-76
2024/01/03 03:00:19;;;;;;;42.55;5.13;;;;;;;9.02;100.00;98856.28;5000163;28;20022;-75
2024/01/03 03:02:44;;;;;;;43.83;4.80;;;;;;;9.03;100.00;98861.50;5020251;28;20537;-75
2024/01/03 03:05:09;;;;;;;32.08;5.18;;;;;;;9.05;100.00;98856.44;5037613;28;20079;-75
2024/01/03 03:07:36;;;;;;;36.53;4.82;;;;;;;9.05;100.00;98855.63;5002035;28;20030;-76
2024/01/03 03:10:02;;;;;;;42.35;5.53;;;;;;;9.05;100.00;98850.91;5027479;28;20110;-75
2024/01/03 03:12:27;;;;;;;41.22;5.13;;;;;;;9.08;100.00;98843.91;5036213;28;20390;-75
2024/01/03 03:14:53;;;;;;;42.58;4.82;;;;;;;9.09;100.00;98859.38;5013896;28;20084;-76
2024/01/03 03:17:18;;;;;;;44.28;5.70;;;;;;;9.08;100.00;98858.59;5064811;28;20047;-75
2024/01/03 03:19:43;;;;;;;38.67;5.55;;;;;;;9.10;100.00;98856.28;5037257;28;20632;-76
2024/01/03 03:22:09;;;;;;;44.58;5.25;;;;;;;9.11;100.00;98866.25;5037210;28;20026;-75
2024/01/03 03:24:35;;;;;;;50.58;5.43;;;;;;;9.11;100.00;98862.63;5035927;28;20037;-75
2024/01/03 03:27:00;;;;;;;46.92;5.53;;;;;;;9.12;100.00;98867.84;5033676;28;20067;-75
2024/01/03 03:29:26;;;;;;;44.55;6.22;;;;;;;9.12;100.00;98862.31;5036847;28;20033;-75
2024/01/03 03:31:51;;;;;;;29.70;4.95;;;;;;;9.14;100.00;98870.31;5019367;28;20029;-75
2024/01/03 03:34:17;;;;;;;37.22;5.10;;;;;;;9.14;100.00;98865.59;5036832;28;20033;-75
2024/01/03 03:36:43;;;;;;;48.25;6.28;;;;;;;9.15;100.00;98869.16;5016765;28;20061;-75
2024/01/03 03:39:08;;;;;;;29.52;4.20;;;;;;;9.16;100.00;98865.25;5035764;28;20486;-76
2024/01/03 03:41:35;;;;;;;46.63;5.40;;;;;;;9.15;100.00;98869.97;5035833;28;20029;-75
2024/01/03 03:44:00;;;;;;;37.92;5.47;;;;;;;9.14;100.00;98865.59;5029994;28;20033;-75
2024/01/03 03:46:26;;;;;;;39.20;5.75;;;;;;;9.12;100.00;98862.31;5026751;28;20037;-75
2024/01/03 03:48:51;;;;;;;39.72;5.40;;;;;;;9.08;100.00;98860.50;5021263;28;20029;-75
2024/01/03 03:51:18;;;;;;;37.50;5.57;;;;;;;9.05;100.00;98853.66;5027317;28;20029;-75
2024/01/03 03:53:44;;;;;;;36.58;5.35;;;;;;;8.99;100.00;98845.84;5032596;28;20041;-75
2024/01/03 03:56:09;;;;;;;38.65;4.85;;;;;;;8.93;100.00;98853.50;5036689;28;20026;-75
2024/01/03 03:58:35;;;;;;;41.50;5.78;;;;;;;8.89;100.00;98852.53;5034013;28;20033;-75
2024/01/03 04:01:00;;;;;;;33.17;5.07;;;;;;;8.86;100.00;98858.69;5036396;28;20033;-75
2024/01/03 04:03:26;;;;;;;42.38;5.32;;;;;;;8.81;100.00;98853.31;5018951;28;20691;-75
2024/01/03 04:05:51;;;;;;;47.28;6.25;;;;;;;8.72;100.00;98848.59;5035415;28;20422;-75
2024/01/03 04:08:17;;;;;;;38.58;5.45;;;;;;;8.66;100.00;98849.03;5032006;28;20021;-75
2024/01/03 04:10:42;;;;;;;38.67;6.18;;;;;;;8.66;100.00;98865.66;5029924;28;20025;-75
2024/01/03 04:13:08;;;;;;;43.63;5.53;;;;;;;8.62;100.00;98862.72;5018719;28;20030;-75
2024/01/03 04:15:34;;;;;;;49.53;5.93;;;;;;;8.61;100.00;98863.03;5035188;28;20040;-75
2024/01/03 04:18:00;;;;;;;40.63;5.20;;;;;;;8.62;100.00;98871.00;5034915;28;20035;-75
2024/01/03 04:20:31;;;;;;;49.08;6.28;;;;;;;8.62;100.00;98872.97;5072675;27;20391;-75
2024/01/03 04:22:57;;;;;;;40.60;5.32;;;;;;;8.61;100.00;98874.94;5072664;28;20032;-74
2024/01/03 04:25:23;;;;;;;48.00;5.57;;;;;;;8.59;100.00;98874.44;5069997;28;20025;-75
2024/01/03 04:27:48;;;;;;;41.53;4.53;;;;;;;8.61;100.00;98874.94;5071245;28;20029;-74
2024/01/03 04:30:14;;;;;;;41.13;5.63;;;;;;;8.62;100.00;98868.25;5056879;28;20036;-75
2024/01/03 04:32:39;;;;;;;26.75;4.30;;;;;;;8.63;100.00;98863.53;5054674;28;20512;-75
2024/01/03 04:35:05;;;;;;;47.75;6.25;;;;;;;8.63;100.00;98872.63;5071493;28;20374;-75
2024/01/03 04:37:32;;;;;;;35.80;5.40;;;;;;;8.67;100.00;98862.56;5070936;28;20673;-75
2024/01/03 04:39:57;;;;;;;57.63;6.68;;;;;;;8.68;100.00;98877.22;5072356;28;20028;-75
2024/01/03 04:42:23;;;;;;;43.85;5.70;;;;;;;8.70;100.00;98881.28;5072325;28;20499;-75
2024/01/03 04:44:48;;;;;;;48.22;5.97;;;;;;;8.71;100.00;98868.28;5054131;28;20079;-75
2024/01/03 04:47:14;;;;;;;43.22;5.95;;;;;;;8.72;100.00;98879.03;5067804;28;20362;-74
2024/01/03 04:49:39;;;;;;;41.38;5.90;;;;;;;8.75;100.00;98887.81;5060565;28;20037;-75
2024/01/03 04:52:05;;;;;;;40.72;5.97;;;;;;;8.75;100.00;98891.41;5054389;28;20037;-75
2024/01/03 04:54:30;;;;;;;35.97;4.85;;;;;;;8.76;100.00;98895.81;5070821;28;20111;-75
2024/01/03 04:56:56;;;;;;;28.00;4.43;;;;;;;8.78;100.00;98895.50;5070919;28;20036;-75
2024/01/03 04:59:21;;;;;;;39.72;5.35;;;;;;;8.78;100.00;98899.06;5070631;28;20401;-75
2024/01/03 05:01:47;;;;;;;35.97;5.30;;;;;;;8.81;100.00;98900.38;5070774;28;20036;-75
2024/01/03 05:04:12;;;;;;;34.15;5.43;;;;;;;8.83;100.00;98887.84;5072040;28;20024;-75
2024/01/03 05:06:38;;;;;;;39.78;5.43;;;;;;;8.84;100.00;98889.47;5071981;28;20090;-75
2024/01/03 05:09:04;;;;;;;41.50;5.25;;;;;;;8.87;100.00;98888.03;5061687;28;20029;-75
2024/01/03 05:11:30;;;;;;;40.40;6.00;;;;;;;8.86;100.00;98889.13;5071888;28;20051;-74
2024/01/03 05:13:56;;;;;;;40.20;5.20;;;;;;;8.85;100.00;98890.28;5037150;28;20041;-75
2024/01/03 05:16:21;;;;;;;47.20;6.65;;;;;;;8.85;100.00;98898.59;5071650;28;20029;-74
2024/01/03 05:18:47;;;;;;;34.58;4.45;;;;;;;8.81;100.00;98892.88;5053680;28;20094;-74
2024/01/03 05:21:12;;;;;;;41.97;5.45;;;;;;;8.78;100.00;98890.78;5071488;28;20028;-75
2024/01/03 05:23:38;;;;;;;36.85;5.35;;;;;;;8.74;100.00;98895.31;5071517;28;20040;-75
2024/01/03 05:26:03;;;;;;;40.03;5.80;;;;;;;8.72;100.00;98892.88;5068035;28;20029;-75
2024/01/03 05:28:29;;;;;;;37.63;5.38;;;;;;;8.69;100.00;98898.22;5071482;28;20074;-75
2024/01/03 05:30:54;;;;;;;35.35;4.50;;;;;;;8.67;100.00;98897.75;5063457;28;20044;-75
2024/01/03 05:33:20;;;;;;;41.78;4.80;;;;;;;8.62;100.00;98895.09;5058318;28;20028;-74
2024/01/03 05:35:45;;;;;;;45.00;6.10;;;;;;;8.55;100.00;98903.84;5047320;28;20041;-75
2024/01/03 05:38:10;;;;;;;44.97;6.47;;;;;;;8.54;100.00;98906.97;5065136;28;20393;-74
2024/01/03 05:40:36;;;;;;;39.88;5.13;;;;;;;8.47;100.00;98899.13;5054299;28;20037;-75
2024/01/03 05:43:02;;;;;;;48.05;5.60;;;;;;;8.48;100.00;98909.06;5049843;28;20418;-74
2024/01/03 05:45:27;;;;;;;36.58;5.90;;;;;;;8.43;100.00;98893.41;5034616;28;20068;-75
2024/01/03 05:47:53;;;;;;;29.60;5.00;;;;;;;8.39;100.00;98895.19;5048287;28;20025;-75
2024/01/03 05:50:18;;;;;;;41.83;5.65;;;;;;;8.38;100.00;98899.03;5023236;28;20025;-74
2024/01/03 05:52:44;;;;;;;36.83;5.78;;;;;;;8.35;100.00;98905.22;5055031;28;20029;-75
2024/01/03 05:55:09;;;;;;;41.33;5.82;;;;;;;8.27;100.00;98893.00;5072081;28;20029;-75
2024/01/03 05:57:35;;;;;;;40.20;5.55;;;;;;;8.26;100.00;98902.41;5046780;28;20440;-74
2024/01/03 06:00:01;;;;;;;45.00;5.82;;;;;;;8.23;100.00;98903.03;5043012;28;20037;-75
2024/01/03 06:02:26;;;;;;;48.33;5.10;;;;;;;8.19;100.00;98904.84;5045812;28;20454;-75
2024/01/03 06:04:52;;;;;;;42.05;4.78;;;;;;;8.19;100.00;98910.38;5044016;28;20036;-75
2024/01/03 06:07:17;;;;;;;54.25;5.40;;;;;;;8.14;100.00;98913.25;5079213;28;20025;-74
2024/01/03 06:09:44;;;;;;;47.58;6.55;;;;;;;8.17;100.00;98909.03;5047303;28;20021;-75
2024/01/03 06:12:09;;;;;;;41.90;6.00;;;;;;;8.16;100.00;98901.84;5056423;28;20029;-75
2024/01/03 06:14:35;;;;;;;38.70;5.78;;;;;;;8.11;100.00;98904.75;5039090;28;20029;-75
2024/01/03 06:17:00;;;;;;;43.47;6.30;;;;;;;8.14;100.00;98899.44;5056101;28;20028;-75
2024/01/03 06:19:25;;;;;;;32.63;5.28;;;;;;;8.13;100.00;98900.53;5055718;28;20075;-74
2024/01/03 06:21:51;;;;;;;42.80;5.45;;;;;;;8.14;100.00;98910.50;5056711;28;20646;-74
2024/01/03 06:24:16;;;;;;;35.13;5.43;;;;;;;8.15;100.00;98912.13;5021715;28;20033;-75
2024/01/03 06:26:42;;;;;;;40.92;5.95;;;;;;;8.14;100.00;98899.44;5054603;28;20367;-75
2024/01/03 06:29:08;;;;;;;37.75;4.80;;;;;;;8.17;100.00;98909.03;5039041;28;20025;-74
2024/01/03 06:31:34;;;;;;;36.72;5.18;;;;;;;8.18;100.00;98905.94;5055793;28;20033;-75
2024/01/03 06:33:59;;;;;;;43.97;5.47;;;;;;;8.19;100.00;98898.47;5055770;28;20036;-74
2024/01/03 06:36:25;;;;;;;36.30;5.25;;;;;;;8.24;100.00;98907.44;5055512;28;20036;-75
2024/01/03 06:38:50;;;;;;;46.00;5.78;;;;;;;8.26;100.00;98913.47;5055479;28;20029;-75
2024/01/03 06:41:17;;;;;;;40.38;5.88;;;;;;;8.28;100.00;98916.75;5055479;28;20045;-74
2024/01/03 06:43:43;;;;;;;32.22;5.38;;;;;;;8.31;100.00;98908.94;5054273;28;20451;-74
2024/01/03 06:46:08;;;;;;;51.70;6.15;;;;;;;8.33;100.00;98918.56;5055395;28;20024;-74
2024/01/03 06:48:34;;;;;;;37.92;6.20;;;;;;;8.38;100.00;98934.19;5055004;28;20029;-74
2024/01/03 06:51:02;;;;;;;39.90;5.38;;;;;;;8.42;100.00;98926.94;5055576;28;20098;-75
2024/01/03 06:53:29;;;;;;;36.60;4.97;;;;;;;8.43;100.00;98921.06;5055018;28;20035;-75
2024/01/03 06:55:55;;;;;;;42.95;5.35;;;;;;;8.43;100.00;98918.31;5056423;28;20540;-74
2024/01/03 06:58:20;;;;;;;38.13;6.43;;;;;;;8.43;100.00;98906.44;5055994;28;20029;-74
2024/01/03 07:00:46;;;;;;;46.28;6.28;;;;;;;8.43;100.00;98918.31;5053478;28;20029;-75
2024/01/03 07:03:11;;;;;;;45.25;5.78;;;;;;;8.43;100.00;98911.97;5052366;28;20063;-75
2024/01/03 07:05:37;;;;;;;38.17;5.45;;;;;;;8.42;100.00;98913.09;5046660;28;20044;-74
2024/01/03 07:08:05;;;;;;;40.97;5.95;;;;;;;8.41;100.00;98922.53;5036588;28;20498;-74
2024/01/03 07:10:31;;;;;;;40.13;5.15;;;;;;;8.40;100.00;98915.38;5048031;28;20078;-74
2024/01/03 07:13:00;;;;;;;42.95;5.07;;;;;;;8.37;100.00;98902.13;5054550;28;20033;-74
2024/01/03 07:15:26;;;;;;;45.65;6.40;;;;;;;8.34;100.00;98913.84;5055083;28;20029;-74
2024/01/03 07:17:52;;;;;;;35.13;5.50;;;;;;;8.32;100.00;98918.88;5038253;28;20044;-75
2024/01/03 07:20:18;;;;;;;38.78;5.47;;;;;;;8.31;100.00;98908.94;5038287;28;20064;-74
2024/01/03 07:22:43;;;;;;;38.97;5.50;;;;;;;8.25;100.00;98900.78;5054504;28;20032;-74
2024/01/03 07:25:08;;;;;;;29.92;4.05;;;;;;;8.20;100.00;98913.94;5055980;28;20029;-74
2024/01/03 07:27:34;;;;;;;32.17;5.00;;;;;;;8.22;100.00;98908.91;5053393;28;20663;-74
2024/01/03 07:29:59;;;;;;;46.00;5.93;;;;;;;8.16;100.00;98911.00;5054467;28;20025;-74
2024/01/03 07:32:25;;;;;;;34.13;4.93;;;;;;;8.14;100.00;98904.97;5054595;28;20043;-74
2024/01/03 07:34:51;;;;;;;48.92;6.22;;;;;;;8.10;100.00;98909.47;5054674;28;20508;-75
2024/01/03 07:37:16;;;;;;;34.60;4.93;;;;;;;8.09;100.00;98902.31;5054399;28;20478;-74
2024/01/03 07:39:42;;;;;;;39.10;5.97;;;;;;;8.06;100.00;98905.72;5034783;28;20029;-74
2024/01/03 07:42:07;;;;;;;37.58;5.47;;;;;;;8.03;100.00;98911.88;5021572;28;20079;-74
2024/01/03 07:44:38;;;;;;;51.05;6.40;;;;;;;8.02;100.00;98922.13;5055460;28;20036;-74
2024/01/03 07:47:03;;;;;;;40.35;6.60;;;;;;;7.98;100.00;98912.03;5054746;28;20043;-75
2024/01/03 07:49:29;;;;;;;49.78;6.93;;;;;;;7.98;100.00;98917.53;5037726;28;20021;-74
2024/01/03 07:51:54;;;;;;;36.28;5.93;;;;;;;7.98;100.00;98920.31;5055456;28;20037;-74
2024/01/03 07:54:20;;;;;;;34.65;5.57;;;;;;;8.00;100.00;98918.88;5054064;28;20037;-75
2024/01/03 07:56:45;;;;;;;36.33;5.88;;;;;;;8.01;100.00;98919.69;5052769;28;20059;-74
2024/01/03 07:59:11;;;;;;;44.03;6.68;;;;;;;8.02;100.00;98935.13;5051016;28;20039;-75
2024/01/03 08:01:36;;;;;;;48.40;6.72;;;;;;;8.03;100.00;98925.72;5054201;28;20025;-74
2024/01/03 08:04:04;;;;;;;48.78;7.07;;;;;;;8.06;100.00;98927.84;5046974;28;20033;-78
2024/01/03 08:06:30;;;;;;;38.72;6.70;;;;;;;8.09;100.00;98938.28;5047935;28;20037;-75
2024/01/03 08:08:59;;;;;;;45.85;6.18;;;;;;;8.12;100.00;98926.56;5040835;28;20022;-75
2024/01/03 08:11:24;;;;;;;44.08;5.65;;;;;;;8.13;100.00;98925.44;5053785;28;20036;-74
2024/01/03 08:13:49;;;;;;;45.28;6.88;;;;;;;8.15;100.00;98933.41;5050255;28;20477;-75
2024/01/03 08:16:15;;;;;;;36.42;5.65;;;;;;;8.15;100.00;98922.38;5037538;28;20040;-75
2024/01/03 08:18:43;;;;;;;44.75;6.03;;;;;;;8.17;100.00;98936.69;5036851;28;20048;-75
2024/01/03 08:21:08;;;;;;;47.42;6.40;;;;;;;8.19;100.00;98937.16;5035824;28;20049;-74
2024/01/03 08:23:34;;;;;;;50.60;5.82;;;;;;;8.19;100.00;98939.94;5053929;28;20036;-75
2024/01/03 08:26:00;;;;;;;46.88;5.47;;;;;;;8.21;100.00;98924.66;5047999;28;20029;-75
2024/01/03 08:28:25;;;;;;;29.73;4.60;;;;;;;8.22;100.00;98931.03;5053716;28;20082;-75
2024/01/03 08:30:52;;;;;;;31.80;5.50;;;;;;;8.21;100.00;98921.91;5036261;28;20033;-75
2024/01/03 08:33:17;;;;;;;45.70;6.35;;;;;;;8.22;100.00;98920.78;5054060;28;20029;-74
2024/01/03 08:35:43;;;;;;;39.83;5.75;;;;;;;8.23;100.00;98914.09;5020150;28;20040;-74
2024/01/03 08:38:09;;;;;;;42.63;6.90;;;;;;;8.23;100.00;98919.63;5043720;28;20040;-75
2024/01/03 08:40:34;;;;;;;38.15;5.85;;;;;;;8.24;100.00;98912.97;5053730;28;20060;-75
2024/01/03 08:43:00;;;;;;;45.20;5.15;;;;;;;8.27;100.00;98915.13;5053501;28;20037;-75
2024/01/03 08:45:26;;;;;;;35.80;5.55;;;;;;;8.27;100.00;98911.50;5053915;28;20166;-75
2024/01/03 08:47:51;;;;;;;43.17;5.88;;;;;;;8.31;100.00;98922.78;5055161;28;20029;-75
2024/01/03 08:50:17;;;;;;;40.08;6.13;;;;;;;8.33;100.00;98918.56;5053691;28;20037;-75
2024/01/03 08:52:43;;;;;;;47.53;5.55;;;;;;;8.36;100.00;98915.16;5039394;28;20653;-75
2024/01/03 08:55:11;;;;;;;43.67;5.63;;;;;;;8.43;100.00;98917.50;5053922;28;20585;-75
2024/01/03 08:57:37;;;;;;;41.78;5.53;;;;;;;8.43;100.00;98917.50;5020566;28;20128;-75
2024/01/03 09:00:03;;;;;;;43.97;5.75;;;;;;;8.44;100.00;98910.81;5047185;28;20028;-75
2024/01/03 09:02:29;;;;;;;44.15;5.18;;;;;;;8.48;100.00;98911.81;5037479;28;20591;-75
2024/01/03 09:04:54;;;;;;;40.40;5.15;;;;;;;8.54;100.00;98910.53;5055098;28;20052;-75
2024/01/03 09:07:20;;;;;;;46.28;5.32;;;;;;;8.55;100.00;98903.84;5057251;28;20033;-75
2024/01/03 09:09:45;;;;;;;37.05;5.63;;;;;;;8.59;100.00;98902.09;5048227;28;20181;-75
2024/01/03 09:12:11;;;;;;;43.25;6.43;;;;;;;8.62;100.00;98887.63;5020792;28;20040;-75
2024/01/03 09:14:36;;;;;;;44.33;5.68;;;;;;;8.66;100.00;98899.69;5055366;28;20087;-74
2024/01/03 09:17:02;;;;;;;57.58;7.63;;;;;;;8.69;100.00;98882.44;5057293;28;20700;-75
2024/01/03 09:19:28;;;;;;;48.97;5.93;;;;;;;8.74;100.00;98881.47;5056858;28;20041;-74
2024/01/03 09:21:55;;;;;;;51.33;6.90;;;;;;;8.79;100.00;98886.03;5020887;28;20029;-75
2024/01/03 09:24:20;;;;;;;62.88;7.53;;;;;;;8.82;100.00;98880.66;5040783;28;20039;-75
2024/01/03 09:26:47;;;;;;;52.20;7.10;;;;;;;8.85;100.00;98879.22;5054635;28;20529;-75
2024/01/03 09:29:12;;;;;;;51.30;6.00;;;;;;;8.91;100.00;98878.75;5055997;28;20053;-75
2024/01/03 09:31:42;;;;;;;45.17;5.88;;;;;;;8.95;100.00;98878.91;5057203;28;20039;-75
2024/01/03 09:34:08;;;;;;;42.83;5.03;;;;;;;8.98;100.00;98883.81;5058072;28;20033;-75
2024/01/03 09:36:33;;;;;;;43.08;5.93;;;;;;;9.02;100.00;98884.78;5040089;28;20079;-75
2024/01/03 09:38:59;;;;;;;50.55;6.13;;;;;;;9.05;100.00;98870.28;5043202;28;20500;-75
2024/01/03 09:41:24;;;;;;;60.65;7.15;;;;;;;9.12;100.00;98883.66;5054071;28;20090;-75
2024/01/03 09:43:52;;;;;;;57.97;5.93;;;;;;;9.15;100.00;98877.47;5039697;28;20527;-75
2024/01/03 09:46:20;;;;;;;39.10;5.00;;;;;;;9.20;100.00;98890.38;5037424;28;20026;-75
2024/01/03 09:48:47;;;;;;;47.35;6.13;;;;;;;9.23;100.00;98900.78;5037026;28;20033;-75
2024/01/03 09:51:12;;;;;;;59.05;7.28;;;;;;;9.25;100.00;98896.56;5050998;28;20039;-75
2024/01/03 09:53:38;;;;;;;52.08;6.22;;;;;;;9.27;100.00;98890.69;5057715;28;20036;-75
2024/01/03 09:56:03;;;;;;;36.80;6.03;;;;;;;9.28;100.00;98908.94;5034802;28;20120;-74
2024/01/03 09:58:29;;;;;;;55.95;7.53;;;;;;;9.29;100.00;98899.47;5056239;28;20478;-74
2024/01/03 10:00:54;;;;;;;53.90;6.20;;;;;;;9.31;100.00;98886.13;5040127;28;20044;-75
2024/01/03 10:03:20;;;;;;;47.70;5.47;;;;;;;9.30;100.00;98895.56;5056443;28;20062;-75
2024/01/03 10:05:45;;;;;;;42.78;5.53;;;;;;;9.28;100.00;98893.13;5036977;28;20030;-75
2024/01/03 10:08:16;;;;;;;41.25;6.10;;;;;;;9.28;100.00;98895.09;5052436;28;20481;-74
2024/01/03 10:10:41;;;;;;;42.40;6.75;;;;;;;9.27;100.00;98896.22;5084094;28;20418;-75
2024/01/03 10:13:21;;;;;;;54.65;5.78;;;;;;;9.27;100.00;98907.28;5039419;28;20106;-75
2024/01/03 10:15:47;;;;;;;39.67;6.35;;;;;;;9.27;100.00;98902.56;5054064;28;20032;-75
2024/01/03 10:18:16;;;;;;;41.47;4.82;;;;;;;9.29;100.00;98910.56;5057282;28;20083;-75
2024/01/03 10:20:42;;;;;;;38.97;5.10;;;;;;;9.27;100.00;98905.34;5056195;28;20029;-74
2024/01/03 10:23:15;;;;;;;41.67;5.82;;;;;;;9.28;100.00;98897.88;5057267;28;20051;-75
2024/01/03 10:25:42;;;;;;;30.23;4.90;;;;;;;9.28;100.00;98904.22;5054568;28;20033;-75
2024/01/03 10:28:26;;;;;;;41.80;5.10;;;;;;;9.33;100.00;98911.53;5044383;28;20021;-75
2024/01/03 10:30:57;;;;;;;51.15;5.35;;;;;;;9.34;100.00;98919.53;5053861;28;20056;-75
2024/01/03 10:33:22;;;;;;;32.63;4.57;;;;;;;9.36;100.00;98911.72;5041773;28;20038;-75
2024/01/03 10:35:48;;;;;;;32.13;4.82;;;;;;;9.38;100.00;98908.59;5028515;28;20043;-75
2024/01/03 10:38:15;;;;;;;32.03;4.65;;;;;;;9.44;100.00;98912.84;5041883;28;20033;-75
2024/01/03 10:40:41;;;;;;;31.38;4.25;;;;;;;9.51;100.00;98917.91;5021691;28;20033;-75
2024/01/03 10:43:10;;;;;;;33.90;3.53;;;;;;;9.57;100.00;98911.06;5035419;28;20029;-75
2024/01/03 10:45:35;;;;;;;33.83;3.80;;;;;;;9.60;100.00;98893.78;5055547;28;20067;-75
2024/01/03 10:48:01;;;;;;;23.05;3.67;;;;;;;9.63;100.00;98891.16;5055579;28;20493;-75
2024/01/03 10:50:28;;;;;;;26.92;3.63;;;;;;;9.71;100.00;98894.25;5055216;28;20087;-75
2024/01/03 10:52:57;;;;;;;22.90;3.65;;;;;;;9.74;100.00;98899.16;5039140;28;20033;-75
2024/01/03 10:55:26;;;;;;;29.42;3.42;;;;;;;9.73;100.00;98886.44;5038685;28;20524;-75
2024/01/03 10:57:58;;;;;;;30.02;3.95;;;;;;;9.76;100.00;98905.19;5051229;28;20033;-75
2024/01/03 11:00:30;;;;;;;24.17;3.45;;;;;;;9.77;100.00;98902.06;5038555;28;20037;-75
2024/01/03 11:02:58;;;;;;;24.77;3.40;;;;;;;9.81;100.00;98916.13;5056218;28;20041;-75
2024/01/03 11:05:54;;;;;;;26.30;3.47;;;;;;;9.81;100.00;98916.94;5038916;28;20051;-75
2024/01/03 11:08:19;;;;;;;25.40;3.92;;;;;;;9.80;100.00;98897.84;5053215;28;20490;-75
2024/01/03 11:10:50;;;;;;;24.05;2.90;;;;;;;9.83;100.00;98897.16;5033817;28;20028;-75
2024/01/03 11:13:29;;;;;;;25.50;4.07;;;;;;;9.84;100.00;98883.00;5054627;28;20039;-75
2024/01/03 11:15:55;;;;;;;17.50;3.10;;;;;;;9.88;100.00;98893.44;5055387;28;20504;-75
2024/01/03 11:18:39;;;;;;;24.38;3.47;;;;;;;9.88;100.00;98880.38;5038443;28;20059;-75
2024/01/03 11:21:20;;;;;;;19.85;3.90;;;;;;;9.89;100.00;98890.34;5056511;28;20061;-75